sensor_id;sensor_type;location;lat;lon;timestamp;P1;durP1;ratioP1;P2;durP2;ratioP2
19617;SDS011;9956;51.006;13.670;2023-08-20T00:04:10;10.43;;;9.40;;
19617;SDS011;9956;51.006;13.670;2023-08-20T00:09:11;11.57;;;9.57;;
19617;SDS011;9956;51.006;13.670;2023-08-20T00:14:14;10.85;;;9.85;;
19617;SDS011;9956;51.006;13.670;2023-08-20T00:19:15;10.82;;;9.85;;
19617;SDS011;9956;51.006;13.670;2023-08-20T00:24:16;11.13;;;10.00;;
19617;SDS011;9956;51.006;13.670;2023-08-20T00:29:17;10.63;;;9.50;;
19617;SDS011;9956;51.006;13.670;2023-08-20T00:34:17;10.02;;;9.05;;
19617;SDS011;9956;51.006;13.670;2023-08-20T00:39:18;10.55;;;9.50;;
19617;SDS011;9956;51.006;13.670;2023-08-20T00:44:18;9.65;;;8.85;;
19617;SDS011;9956;51.006;13.670;2023-08-20T00:49:18;10.10;;;8.75;;
19617;SDS011;9956;51.006;13.670;2023-08-20T00:54:19;9.52;;;8.55;;
19617;SDS011;9956;51.006;13.670;2023-08-20T00:59:20;8.70;;;8.00;;
19617;SDS011;9956;51.006;13.670;2023-08-20T01:04:21;12.30;;;9.43;;
19617;SDS011;9956;51.006;13.670;2023-08-20T01:09:40;9.98;;;9.05;;
19617;SDS011;9956;51.006;13.670;2023-08-20T01:14:47;10.05;;;9.15;;
19617;SDS011;9956;51.006;13.670;2023-08-20T01:19:48;9.70;;;8.70;;
19617;SDS011;9956;51.006;13.670;2023-08-20T01:30:01;15.02;;;10.00;;
19617;SDS011;9956;51.006;13.670;2023-08-20T01:35:05;10.23;;;9.32;;
19617;SDS011;9956;51.006;13.670;2023-08-20T01:40:06;19.42;;;17.73;;
19617;SDS011;9956;51.006;13.670;2023-08-20T01:45:10;15.60;;;14.20;;
19617;SDS011;9956;51.006;13.670;2023-08-20T01:50:11;16.30;;;14.77;;
19617;SDS011;9956;51.006;13.670;2023-08-20T01:55:11;19.08;;;17.40;;
19617;SDS011;9956;51.006;13.670;2023-08-20T02:00:12;21.10;;;18.83;;
19617;SDS011;9956;51.006;13.670;2023-08-20T02:05:15;19.25;;;17.30;;
19617;SDS011;9956;51.006;13.670;2023-08-20T02:10:16;15.35;;;14.05;;
19617;SDS011;9956;51.006;13.670;2023-08-20T02:15:16;13.50;;;11.30;;
19617;SDS011;9956;51.006;13.670;2023-08-20T02:20:17;13.73;;;12.15;;
19617;SDS011;9956;51.006;13.670;2023-08-20T02:25:18;12.25;;;11.13;;
19617;SDS011;9956;51.006;13.670;2023-08-20T02:30:18;11.40;;;10.38;;
19617;SDS011;9956;51.006;13.670;2023-08-20T02:35:19;12.65;;;11.38;;
19617;SDS011;9956;51.006;13.670;2023-08-20T02:40:24;12.38;;;11.13;;
19617;SDS011;9956;51.006;13.670;2023-08-20T02:45:24;11.38;;;10.27;;
19617;SDS011;9956;51.006;13.670;2023-08-20T02:50:25;11.15;;;10.15;;
19617;SDS011;9956;51.006;13.670;2023-08-20T02:55:26;10.00;;;8.98;;
19617;SDS011;9956;51.006;13.670;2023-08-20T03:00:26;9.75;;;8.80;;
19617;SDS011;9956;51.006;13.670;2023-08-20T03:05:27;11.05;;;8.85;;
19617;SDS011;9956;51.006;13.670;2023-08-20T03:10:28;10.38;;;8.77;;
19617;SDS011;9956;51.006;13.670;2023-08-20T03:15:28;9.88;;;8.88;;
19617;SDS011;9956;51.006;13.670;2023-08-20T03:20:29;13.18;;;9.52;;
19617;SDS011;9956;51.006;13.670;2023-08-20T03:25:31;9.90;;;8.48;;
19617;SDS011;9956;51.006;13.670;2023-08-20T03:30:31;9.75;;;8.75;;
19617;SDS011;9956;51.006;13.670;2023-08-20T03:35:33;10.07;;;9.00;;
19617;SDS011;9956;51.006;13.670;2023-08-20T03:40:34;9.57;;;8.48;;
19617;SDS011;9956;51.006;13.670;2023-08-20T03:45:34;10.45;;;9.18;;
19617;SDS011;9956;51.006;13.670;2023-08-20T03:50:36;8.88;;;7.97;;
19617;SDS011;9956;51.006;13.670;2023-08-20T03:55:36;10.68;;;8.93;;
19617;SDS011;9956;51.006;13.670;2023-08-20T04:00:37;9.70;;;8.80;;
19617;SDS011;9956;51.006;13.670;2023-08-20T04:05:37;9.88;;;8.88;;
19617;SDS011;9956;51.006;13.670;2023-08-20T04:10:42;8.48;;;7.80;;
19617;SDS011;9956;51.006;13.670;2023-08-20T04:15:44;9.95;;;8.30;;
19617;SDS011;9956;51.006;13.670;2023-08-20T04:20:45;10.98;;;9.77;;
19617;SDS011;9956;51.006;13.670;2023-08-20T04:25:45;11.43;;;9.70;;
19617;SDS011;9956;51.006;13.670;2023-08-20T04:30:51;12.30;;;9.90;;
19617;SDS011;9956;51.006;13.670;2023-08-20T04:35:54;10.65;;;9.00;;
19617;SDS011;9956;51.006;13.670;2023-08-20T04:40:54;10.75;;;9.63;;
19617;SDS011;9956;51.006;13.670;2023-08-20T04:45:55;11.20;;;9.07;;
19617;SDS011;9956;51.006;13.670;2023-08-20T04:50:57;11.75;;;9.60;;
19617;SDS011;9956;51.006;13.670;2023-08-20T04:55:59;11.57;;;9.45;;
19617;SDS011;9956;51.006;13.670;2023-08-20T05:00:59;10.23;;;9.25;;
19617;SDS011;9956;51.006;13.670;2023-08-20T05:06:00;9.13;;;8.32;;
19617;SDS011;9956;51.006;13.670;2023-08-20T05:11:00;11.65;;;9.40;;
19617;SDS011;9956;51.006;13.670;2023-08-20T05:16:01;10.02;;;8.93;;
19617;SDS011;9956;51.006;13.670;2023-08-20T05:21:03;9.32;;;8.60;;
19617;SDS011;9956;51.006;13.670;2023-08-20T05:26:03;10.90;;;9.90;;
19617;SDS011;9956;51.006;13.670;2023-08-20T05:31:04;9.00;;;8.20;;
19617;SDS011;9956;51.006;13.670;2023-08-20T05:36:05;10.48;;;9.43;;
19617;SDS011;9956;51.006;13.670;2023-08-20T05:41:06;10.07;;;8.88;;
19617;SDS011;9956;51.006;13.670;2023-08-20T05:46:07;11.05;;;8.60;;
19617;SDS011;9956;51.006;13.670;2023-08-20T05:51:08;9.63;;;8.60;;
19617;SDS011;9956;51.006;13.670;2023-08-20T05:56:12;10.52;;;9.48;;
19617;SDS011;9956;51.006;13.670;2023-08-20T06:01:12;10.30;;;8.30;;
19617;SDS011;9956;51.006;13.670;2023-08-20T06:06:13;9.93;;;9.13;;
19617;SDS011;9956;51.006;13.670;2023-08-20T06:11:14;8.98;;;8.27;;
19617;SDS011;9956;51.006;13.670;2023-08-20T06:16:14;10.65;;;9.57;;
19617;SDS011;9956;51.006;13.670;2023-08-20T06:21:15;10.38;;;8.68;;
19617;SDS011;9956;51.006;13.670;2023-08-20T06:26:15;8.98;;;8.20;;
19617;SDS011;9956;51.006;13.670;2023-08-20T06:31:16;9.32;;;8.40;;
19617;SDS011;9956;51.006;13.670;2023-08-20T06:36:16;9.07;;;8.13;;
19617;SDS011;9956;51.006;13.670;2023-08-20T06:41:17;9.23;;;8.43;;
19617;SDS011;9956;51.006;13.670;2023-08-20T06:46:18;10.93;;;9.35;;
19617;SDS011;9956;51.006;13.670;2023-08-20T06:51:19;10.00;;;8.45;;
19617;SDS011;9956;51.006;13.670;2023-08-20T06:56:21;9.43;;;8.55;;
19617;SDS011;9956;51.006;13.670;2023-08-20T07:01:21;12.75;;;9.38;;
19617;SDS011;9956;51.006;13.670;2023-08-20T07:06:21;10.27;;;9.35;;
19617;SDS011;9956;51.006;13.670;2023-08-20T07:11:22;9.98;;;8.98;;
19617;SDS011;9956;51.006;13.670;2023-08-20T07:16:22;9.48;;;8.20;;
19617;SDS011;9956;51.006;13.670;2023-08-20T07:21:23;8.48;;;7.78;;
19617;SDS011;9956;51.006;13.670;2023-08-20T07:26:23;9.82;;;8.93;;
19617;SDS011;9956;51.006;13.670;2023-08-20T07:31:24;11.00;;;8.45;;
19617;SDS011;9956;51.006;13.670;2023-08-20T07:36:29;10.10;;;8.18;;
19617;SDS011;9956;51.006;13.670;2023-08-20T07:41:29;9.43;;;7.47;;
19617;SDS011;9956;51.006;13.670;2023-08-20T07:46:30;8.00;;;7.28;;
19617;SDS011;9956;51.006;13.670;2023-08-20T07:51:30;8.25;;;7.55;;
19617;SDS011;9956;51.006;13.670;2023-08-20T07:56:31;9.13;;;8.25;;
19617;SDS011;9956;51.006;13.670;2023-08-20T08:01:31;9.73;;;7.38;;
19617;SDS011;9956;51.006;13.670;2023-08-20T08:06:32;7.97;;;7.18;;
19617;SDS011;9956;51.006;13.670;2023-08-20T08:11:32;7.65;;;6.95;;
19617;SDS011;9956;51.006;13.670;2023-08-20T08:16:33;7.75;;;6.40;;
19617;SDS011;9956;51.006;13.670;2023-08-20T08:21:33;8.45;;;7.05;;
19617;SDS011;9956;51.006;13.670;2023-08-20T08:26:34;6.97;;;5.47;;
19617;SDS011;9956;51.006;13.670;2023-08-20T08:31:37;8.85;;;6.32;;
19617;SDS011;9956;51.006;13.670;2023-08-20T08:36:38;6.95;;;6.25;;
19617;SDS011;9956;51.006;13.670;2023-08-20T08:41:38;8.60;;;6.03;;
19617;SDS011;9956;51.006;13.670;2023-08-20T08:46:39;9.20;;;6.13;;
19617;SDS011;9956;51.006;13.670;2023-08-20T08:51:40;8.90;;;6.30;;
19617;SDS011;9956;51.006;13.670;2023-08-20T08:56:42;6.18;;;5.63;;
19617;SDS011;9956;51.006;13.670;2023-08-20T09:01:43;8.15;;;7.32;;
19617;SDS011;9956;51.006;13.670;2023-08-20T09:06:52;8.10;;;7.28;;
19617;SDS011;9956;51.006;13.670;2023-08-20T09:11:55;7.65;;;6.85;;
19617;SDS011;9956;51.006;13.670;2023-08-20T09:16:57;8.67;;;8.03;;
19617;SDS011;9956;51.006;13.670;2023-08-20T09:21:58;9.35;;;7.53;;
19617;SDS011;9956;51.006;13.670;2023-08-20T09:26:59;8.13;;;7.37;;
19617;SDS011;9956;51.006;13.670;2023-08-20T09:32:00;10.55;;;8.75;;
19617;SDS011;9956;51.006;13.670;2023-08-20T09:37:02;8.50;;;7.55;;
19617;SDS011;9956;51.006;13.670;2023-08-20T09:42:03;8.20;;;7.60;;
19617;SDS011;9956;51.006;13.670;2023-08-20T09:47:06;9.02;;;8.30;;
19617;SDS011;9956;51.006;13.670;2023-08-20T09:52:08;8.60;;;7.90;;
19617;SDS011;9956;51.006;13.670;2023-08-20T09:57:12;9.05;;;8.25;;
19617;SDS011;9956;51.006;13.670;2023-08-20T10:02:15;9.05;;;8.15;;
19617;SDS011;9956;51.006;13.670;2023-08-20T10:07:15;9.60;;;8.38;;
19617;SDS011;9956;51.006;13.670;2023-08-20T10:12:16;8.50;;;7.88;;
19617;SDS011;9956;51.006;13.670;2023-08-20T10:17:16;11.27;;;10.18;;
19617;SDS011;9956;51.006;13.670;2023-08-20T10:22:17;9.50;;;8.70;;
19617;SDS011;9956;51.006;13.670;2023-08-20T10:27:28;9.50;;;8.45;;
19617;SDS011;9956;51.006;13.670;2023-08-20T10:32:47;9.07;;;8.32;;
19617;SDS011;9956;51.006;13.670;2023-08-20T10:43:04;8.75;;;6.78;;
19617;SDS011;9956;51.006;13.670;2023-08-20T10:48:04;9.80;;;7.65;;
19617;SDS011;9956;51.006;13.670;2023-08-20T10:53:05;7.55;;;6.93;;
19617;SDS011;9956;51.006;13.670;2023-08-20T10:58:05;8.40;;;7.70;;
19617;SDS011;9956;51.006;13.670;2023-08-20T11:03:06;7.15;;;6.55;;
19617;SDS011;9956;51.006;13.670;2023-08-20T11:08:06;7.82;;;7.00;;
19617;SDS011;9956;51.006;13.670;2023-08-20T11:13:08;7.75;;;7.05;;
19617;SDS011;9956;51.006;13.670;2023-08-20T11:18:08;8.10;;;7.40;;
19617;SDS011;9956;51.006;13.670;2023-08-20T11:23:10;7.18;;;6.47;;
19617;SDS011;9956;51.006;13.670;2023-08-20T11:28:12;8.10;;;7.45;;
19617;SDS011;9956;51.006;13.670;2023-08-20T11:33:12;7.50;;;6.75;;
19617;SDS011;9956;51.006;13.670;2023-08-20T11:38:13;7.25;;;6.68;;
19617;SDS011;9956;51.006;13.670;2023-08-20T11:43:14;7.95;;;7.15;;
19617;SDS011;9956;51.006;13.670;2023-08-20T11:48:15;7.73;;;6.70;;
19617;SDS011;9956;51.006;13.670;2023-08-20T11:53:20;6.82;;;6.22;;
19617;SDS011;9956;51.006;13.670;2023-08-20T11:58:21;7.15;;;6.32;;
19617;SDS011;9956;51.006;13.670;2023-08-20T12:03:22;7.30;;;6.60;;
19617;SDS011;9956;51.006;13.670;2023-08-20T12:08:29;6.72;;;6.22;;
19617;SDS011;9956;51.006;13.670;2023-08-20T12:13:37;7.45;;;6.85;;
19617;SDS011;9956;51.006;13.670;2023-08-20T12:18:38;8.00;;;7.30;;
19617;SDS011;9956;51.006;13.670;2023-08-20T12:23:39;7.32;;;6.57;;
19617;SDS011;9956;51.006;13.670;2023-08-20T12:28:39;7.40;;;6.72;;
19617;SDS011;9956;51.006;13.670;2023-08-20T12:33:41;7.60;;;6.90;;
19617;SDS011;9956;51.006;13.670;2023-08-20T12:38:42;6.70;;;6.10;;
19617;SDS011;9956;51.006;13.670;2023-08-20T12:43:43;6.50;;;5.88;;
19617;SDS011;9956;51.006;13.670;2023-08-20T12:48:44;7.23;;;5.80;;
19617;SDS011;9956;51.006;13.670;2023-08-20T12:53:44;6.50;;;5.90;;
19617;SDS011;9956;51.006;13.670;2023-08-20T12:58:45;7.07;;;6.45;;
19617;SDS011;9956;51.006;13.670;2023-08-20T13:03:45;7.00;;;6.40;;
19617;SDS011;9956;51.006;13.670;2023-08-20T13:08:46;6.65;;;6.05;;
19617;SDS011;9956;51.006;13.670;2023-08-20T13:13:47;6.22;;;5.72;;
19617;SDS011;9956;51.006;13.670;2023-08-20T13:18:47;6.53;;;5.93;;
19617;SDS011;9956;51.006;13.670;2023-08-20T13:23:48;7.43;;;6.82;;
19617;SDS011;9956;51.006;13.670;2023-08-20T13:28:48;6.23;;;5.57;;
19617;SDS011;9956;51.006;13.670;2023-08-20T13:33:49;6.77;;;6.27;;
19617;SDS011;9956;51.006;13.670;2023-08-20T13:38:49;6.87;;;6.30;;
19617;SDS011;9956;51.006;13.670;2023-08-20T13:43:50;6.20;;;5.60;;
19617;SDS011;9956;51.006;13.670;2023-08-20T13:48:50;5.33;;;5.03;;
19617;SDS011;9956;51.006;13.670;2023-08-20T13:53:51;6.93;;;6.33;;
19617;SDS011;9956;51.006;13.670;2023-08-20T13:58:52;5.97;;;5.35;;
19617;SDS011;9956;51.006;13.670;2023-08-20T14:03:53;6.05;;;5.45;;
19617;SDS011;9956;51.006;13.670;2023-08-20T14:08:54;7.47;;;5.30;;
19617;SDS011;9956;51.006;13.670;2023-08-20T14:13:54;6.20;;;5.65;;
19617;SDS011;9956;51.006;13.670;2023-08-20T14:18:55;6.90;;;5.70;;
19617;SDS011;9956;51.006;13.670;2023-08-20T14:23:55;6.40;;;5.63;;
19617;SDS011;9956;51.006;13.670;2023-08-20T14:28:56;6.03;;;5.18;;
19617;SDS011;9956;51.006;13.670;2023-08-20T14:33:57;7.27;;;6.53;;
19617;SDS011;9956;51.006;13.670;2023-08-20T14:38:58;6.22;;;5.53;;
19617;SDS011;9956;51.006;13.670;2023-08-20T14:43:58;6.70;;;6.10;;
19617;SDS011;9956;51.006;13.670;2023-08-20T14:48:58;6.78;;;6.22;;
19617;SDS011;9956;51.006;13.670;2023-08-20T14:53:59;8.43;;;6.40;;
19617;SDS011;9956;51.006;13.670;2023-08-20T14:58:59;7.15;;;6.50;;
19617;SDS011;9956;51.006;13.670;2023-08-20T15:04:00;6.27;;;5.83;;
19617;SDS011;9956;51.006;13.670;2023-08-20T15:09:02;7.32;;;6.72;;
19617;SDS011;9956;51.006;13.670;2023-08-20T15:14:03;6.45;;;5.82;;
19617;SDS011;9956;51.006;13.670;2023-08-20T15:19:04;7.23;;;6.17;;
19617;SDS011;9956;51.006;13.670;2023-08-20T15:24:04;6.70;;;6.10;;
19617;SDS011;9956;51.006;13.670;2023-08-20T15:34:54;9.52;;;6.95;;
19617;SDS011;9956;51.006;13.670;2023-08-20T15:39:55;9.13;;;7.10;;
19617;SDS011;9956;51.006;13.670;2023-08-20T15:44:55;8.00;;;7.30;;
19617;SDS011;9956;51.006;13.670;2023-08-20T15:49:56;7.85;;;7.25;;
19617;SDS011;9956;51.006;13.670;2023-08-20T15:54:56;8.10;;;7.30;;
19617;SDS011;9956;51.006;13.670;2023-08-20T15:59:57;8.20;;;7.40;;
19617;SDS011;9956;51.006;13.670;2023-08-20T16:04:57;7.82;;;7.20;;
19617;SDS011;9956;51.006;13.670;2023-08-20T16:09:57;7.72;;;7.13;;
19617;SDS011;9956;51.006;13.670;2023-08-20T16:14:58;9.73;;;5.75;;
19617;SDS011;9956;51.006;13.670;2023-08-20T16:19:58;7.57;;;6.68;;
19617;SDS011;9956;51.006;13.670;2023-08-20T16:24:59;6.20;;;4.82;;
19617;SDS011;9956;51.006;13.670;2023-08-20T16:29:59;6.05;;;4.22;;
19617;SDS011;9956;51.006;13.670;2023-08-20T16:35:00;5.65;;;4.28;;
19617;SDS011;9956;51.006;13.670;2023-08-20T16:40:01;4.72;;;3.97;;
19617;SDS011;9956;51.006;13.670;2023-08-20T16:45:05;4.85;;;4.20;;
19617;SDS011;9956;51.006;13.670;2023-08-20T16:50:06;3.38;;;3.08;;
19617;SDS011;9956;51.006;13.670;2023-08-20T16:55:07;4.85;;;3.13;;
19617;SDS011;9956;51.006;13.670;2023-08-20T17:00:08;4.60;;;3.08;;
19617;SDS011;9956;51.006;13.670;2023-08-20T17:05:08;3.90;;;3.08;;
19617;SDS011;9956;51.006;13.670;2023-08-20T17:10:09;5.10;;;3.20;;
19617;SDS011;9956;51.006;13.670;2023-08-20T17:15:10;6.20;;;3.10;;
19617;SDS011;9956;51.006;13.670;2023-08-20T17:20:10;7.88;;;3.50;;
19617;SDS011;9956;51.006;13.670;2023-08-20T17:25:11;19.48;;;6.22;;
19617;SDS011;9956;51.006;13.670;2023-08-20T17:30:12;8.25;;;5.28;;
19617;SDS011;9956;51.006;13.670;2023-08-20T17:35:12;5.68;;;5.15;;
19617;SDS011;9956;51.006;13.670;2023-08-20T17:40:13;7.05;;;4.88;;
19617;SDS011;9956;51.006;13.670;2023-08-20T17:45:13;9.05;;;5.80;;
19617;SDS011;9956;51.006;13.670;2023-08-20T17:50:14;6.75;;;5.22;;
19617;SDS011;9956;51.006;13.670;2023-08-20T17:55:14;10.25;;;5.88;;
19617;SDS011;9956;51.006;13.670;2023-08-20T18:00:15;7.13;;;5.57;;
19617;SDS011;9956;51.006;13.670;2023-08-20T18:05:19;9.80;;;5.85;;
19617;SDS011;9956;51.006;13.670;2023-08-20T18:10:19;10.07;;;6.57;;
19617;SDS011;9956;51.006;13.670;2023-08-20T18:15:20;11.90;;;7.40;;
19617;SDS011;9956;51.006;13.670;2023-08-20T18:20:20;8.20;;;6.90;;
19617;SDS011;9956;51.006;13.670;2023-08-20T18:25:21;11.20;;;6.90;;
19617;SDS011;9956;51.006;13.670;2023-08-20T18:30:21;8.30;;;6.57;;
19617;SDS011;9956;51.006;13.670;2023-08-20T18:35:22;7.07;;;5.90;;
19617;SDS011;9956;51.006;13.670;2023-08-20T18:40:22;10.13;;;6.80;;
19617;SDS011;9956;51.006;13.670;2023-08-20T18:45:22;7.35;;;6.00;;
19617;SDS011;9956;51.006;13.670;2023-08-20T18:50:23;6.97;;;5.78;;
19617;SDS011;9956;51.006;13.670;2023-08-20T18:55:24;7.03;;;5.97;;
19617;SDS011;9956;51.006;13.670;2023-08-20T19:00:24;8.27;;;6.55;;
19617;SDS011;9956;51.006;13.670;2023-08-20T19:05:26;7.22;;;6.07;;
19617;SDS011;9956;51.006;13.670;2023-08-20T19:10:27;8.43;;;6.25;;
19617;SDS011;9956;51.006;13.670;2023-08-20T19:15:28;8.20;;;6.60;;
19617;SDS011;9956;51.006;13.670;2023-08-20T19:20:28;8.63;;;6.78;;
19617;SDS011;9956;51.006;13.670;2023-08-20T19:25:29;8.52;;;6.78;;
19617;SDS011;9956;51.006;13.670;2023-08-20T19:30:29;7.78;;;6.88;;
19617;SDS011;9956;51.006;13.670;2023-08-20T19:35:30;15.65;;;14.02;;
19617;SDS011;9956;51.006;13.670;2023-08-20T19:40:36;8.35;;;7.10;;
19617;SDS011;9956;51.006;13.670;2023-08-20T19:45:55;11.68;;;7.40;;
19617;SDS011;9956;51.006;13.670;2023-08-20T19:50:56;8.05;;;7.03;;
19617;SDS011;9956;51.006;13.670;2023-08-20T19:55:56;7.57;;;6.22;;
19617;SDS011;9956;51.006;13.670;2023-08-20T20:01:03;7.38;;;6.57;;
19617;SDS011;9956;51.006;13.670;2023-08-20T20:06:05;9.63;;;6.55;;
19617;SDS011;9956;51.006;13.670;2023-08-20T20:11:06;7.38;;;6.68;;
19617;SDS011;9956;51.006;13.670;2023-08-20T20:16:06;8.88;;;7.05;;
19617;SDS011;9956;51.006;13.670;2023-08-20T20:21:07;8.38;;;7.55;;
19617;SDS011;9956;51.006;13.670;2023-08-20T20:26:07;9.68;;;7.85;;
19617;SDS011;9956;51.006;13.670;2023-08-20T20:31:09;8.27;;;6.72;;
19617;SDS011;9956;51.006;13.670;2023-08-20T20:36:09;8.95;;;7.78;;
19617;SDS011;9956;51.006;13.670;2023-08-20T20:41:10;11.10;;;8.63;;
19617;SDS011;9956;51.006;13.670;2023-08-20T20:46:10;8.77;;;7.88;;
19617;SDS011;9956;51.006;13.670;2023-08-20T20:51:11;8.55;;;7.68;;
19617;SDS011;9956;51.006;13.670;2023-08-20T20:56:11;8.70;;;7.90;;
19617;SDS011;9956;51.006;13.670;2023-08-20T21:01:12;10.40;;;8.68;;
19617;SDS011;9956;51.006;13.670;2023-08-20T21:06:13;13.10;;;10.23;;
19617;SDS011;9956;51.006;13.670;2023-08-20T21:11:13;11.63;;;9.02;;
19617;SDS011;9956;51.006;13.670;2023-08-20T21:16:14;9.88;;;8.88;;
19617;SDS011;9956;51.006;13.670;2023-08-20T21:21:14;10.35;;;9.20;;
19617;SDS011;9956;51.006;13.670;2023-08-20T21:26:14;12.48;;;10.32;;
19617;SDS011;9956;51.006;13.670;2023-08-20T21:31:15;12.15;;;10.43;;
19617;SDS011;9956;51.006;13.670;2023-08-20T21:36:15;14.23;;;12.75;;
19617;SDS011;9956;51.006;13.670;2023-08-20T21:41:17;12.90;;;11.45;;
19617;SDS011;9956;51.006;13.670;2023-08-20T21:46:18;14.18;;;12.98;;
19617;SDS011;9956;51.006;13.670;2023-08-20T21:51:18;14.02;;;12.63;;
19617;SDS011;9956;51.006;13.670;2023-08-20T21:56:19;13.65;;;12.15;;
19617;SDS011;9956;51.006;13.670;2023-08-20T22:01:20;16.67;;;13.85;;
19617;SDS011;9956;51.006;13.670;2023-08-20T22:06:21;15.65;;;14.05;;
19617;SDS011;9956;51.006;13.670;2023-08-20T22:11:21;17.45;;;15.48;;
19617;SDS011;9956;51.006;13.670;2023-08-20T22:16:22;20.20;;;18.20;;
19617;SDS011;9956;51.006;13.670;2023-08-20T22:21:22;22.75;;;20.50;;
19617;SDS011;9956;51.006;13.670;2023-08-20T22:26:22;23.10;;;20.65;;
19617;SDS011;9956;51.006;13.670;2023-08-20T22:31:23;26.45;;;22.02;;
19617;SDS011;9956;51.006;13.670;2023-08-20T22:36:24;24.75;;;21.52;;
19617;SDS011;9956;51.006;13.670;2023-08-20T22:41:24;21.17;;;18.88;;
19617;SDS011;9956;51.006;13.670;2023-08-20T22:46:24;21.67;;;19.67;;
19617;SDS011;9956;51.006;13.670;2023-08-20T22:51:25;24.42;;;21.90;;
19617;SDS011;9956;51.006;13.670;2023-08-20T22:56:25;24.27;;;21.58;;
19617;SDS011;9956;51.006;13.670;2023-08-20T23:01:26;26.48;;;23.70;;
19617;SDS011;9956;51.006;13.670;2023-08-20T23:06:26;23.65;;;21.33;;
19617;SDS011;9956;51.006;13.670;2023-08-20T23:11:27;24.42;;;22.02;;
19617;SDS011;9956;51.006;13.670;2023-08-20T23:16:27;23.92;;;21.35;;
19617;SDS011;9956;51.006;13.670;2023-08-20T23:21:28;22.42;;;20.00;;
19617;SDS011;9956;51.006;13.670;2023-08-20T23:26:28;19.60;;;17.70;;
19617;SDS011;9956;51.006;13.670;2023-08-20T23:31:29;18.77;;;17.08;;
19617;SDS011;9956;51.006;13.670;2023-08-20T23:36:29;18.73;;;17.05;;
19617;SDS011;9956;51.006;13.670;2023-08-20T23:41:31;16.92;;;15.32;;
19617;SDS011;9956;51.006;13.670;2023-08-20T23:46:32;16.70;;;15.15;;
19617;SDS011;9956;51.006;13.670;2023-08-20T23:51:33;17.30;;;15.70;;
19617;SDS011;9956;51.006;13.670;2023-08-20T23:56:33;16.58;;;15.07;;
